sensor_id;sensor_type;location;lat;lon;timestamp;P1;durP1;ratioP1;P2;durP2;ratioP2
20593;SDS011;10455;48.732;10.266;2022-07-18T00:01:40;2.43;;;2.20;;
20593;SDS011;10455;48.732;10.266;2022-07-18T00:06:44;3.43;;;2.43;;
20593;SDS011;10455;48.732;10.266;2022-07-18T00:11:46;5.57;;;2.60;;
20593;SDS011;10455;48.732;10.266;2022-07-18T00:16:49;4.23;;;2.40;;
20593;SDS011;10455;48.732;10.266;2022-07-18T00:21:53;2.30;;;2.10;;
20593;SDS011;10455;48.732;10.266;2022-07-18T00:26:55;4.53;;;2.03;;
20593;SDS011;10455;48.732;10.266;2022-07-18T00:31:57;2.87;;;2.57;;
20593;SDS011;10455;48.732;10.266;2022-07-18T00:37:01;3.27;;;2.20;;
20593;SDS011;10455;48.732;10.266;2022-07-18T00:42:03;2.70;;;2.40;;
20593;SDS011;10455;48.732;10.266;2022-07-18T00:47:05;2.77;;;2.10;;
20593;SDS011;10455;48.732;10.266;2022-07-18T00:52:09;6.03;;;2.30;;
20593;SDS011;10455;48.732;10.266;2022-07-18T00:57:11;3.50;;;2.20;;
20593;SDS011;10455;48.732;10.266;2022-07-18T01:02:13;2.17;;;1.97;;
20593;SDS011;10455;48.732;10.266;2022-07-18T01:07:17;5.07;;;2.07;;
20593;SDS011;10455;48.732;10.266;2022-07-18T01:12:19;3.70;;;2.17;;
20593;SDS011;10455;48.732;10.266;2022-07-18T01:17:21;2.40;;;2.20;;
20593;SDS011;10455;48.732;10.266;2022-07-18T01:22:25;3.47;;;2.30;;
20593;SDS011;10455;48.732;10.266;2022-07-18T01:27:27;2.13;;;1.93;;
20593;SDS011;10455;48.732;10.266;2022-07-18T01:32:29;2.47;;;1.87;;
20593;SDS011;10455;48.732;10.266;2022-07-18T01:37:33;2.23;;;1.83;;
20593;SDS011;10455;48.732;10.266;2022-07-18T01:42:35;2.53;;;2.23;;
20593;SDS011;10455;48.732;10.266;2022-07-18T01:47:38;2.43;;;1.97;;
20593;SDS011;10455;48.732;10.266;2022-07-18T01:52:41;3.43;;;2.13;;
20593;SDS011;10455;48.732;10.266;2022-07-18T01:57:44;2.13;;;1.90;;
20593;SDS011;10455;48.732;10.266;2022-07-18T02:02:46;3.90;;;1.87;;
20593;SDS011;10455;48.732;10.266;2022-07-18T02:07:50;2.10;;;2.00;;
20593;SDS011;10455;48.732;10.266;2022-07-18T02:12:52;2.87;;;2.00;;
20593;SDS011;10455;48.732;10.266;2022-07-18T02:17:54;2.00;;;1.90;;
20593;SDS011;10455;48.732;10.266;2022-07-18T02:22:59;2.20;;;2.00;;
20593;SDS011;10455;48.732;10.266;2022-07-18T02:28:01;3.13;;;2.23;;
20593;SDS011;10455;48.732;10.266;2022-07-18T02:33:03;3.83;;;1.90;;
20593;SDS011;10455;48.732;10.266;2022-07-18T02:38:07;3.00;;;2.03;;
20593;SDS011;10455;48.732;10.266;2022-07-18T02:43:10;2.30;;;2.10;;
20593;SDS011;10455;48.732;10.266;2022-07-18T02:48:12;2.87;;;2.10;;
20593;SDS011;10455;48.732;10.266;2022-07-18T02:53:15;1.90;;;1.80;;
20593;SDS011;10455;48.732;10.266;2022-07-18T02:58:19;2.70;;;2.10;;
20593;SDS011;10455;48.732;10.266;2022-07-18T03:03:21;2.50;;;2.00;;
20593;SDS011;10455;48.732;10.266;2022-07-18T03:08:25;3.33;;;2.10;;
20593;SDS011;10455;48.732;10.266;2022-07-18T03:13:27;2.20;;;2.00;;
20593;SDS011;10455;48.732;10.266;2022-07-18T03:18:29;2.30;;;2.10;;
20593;SDS011;10455;48.732;10.266;2022-07-18T03:23:33;2.37;;;1.97;;
20593;SDS011;10455;48.732;10.266;2022-07-18T03:28:35;3.27;;;2.00;;
20593;SDS011;10455;48.732;10.266;2022-07-18T03:33:37;3.00;;;2.10;;
20593;SDS011;10455;48.732;10.266;2022-07-18T03:38:41;2.67;;;2.30;;
20593;SDS011;10455;48.732;10.266;2022-07-18T03:43:43;2.23;;;2.03;;
20593;SDS011;10455;48.732;10.266;2022-07-18T03:48:45;2.70;;;2.33;;
20593;SDS011;10455;48.732;10.266;2022-07-18T03:53:49;3.43;;;2.07;;
20593;SDS011;10455;48.732;10.266;2022-07-18T03:58:51;2.77;;;2.57;;
20593;SDS011;10455;48.732;10.266;2022-07-18T04:03:53;2.03;;;1.90;;
20593;SDS011;10455;48.732;10.266;2022-07-18T04:08:57;2.80;;;2.17;;
20593;SDS011;10455;48.732;10.266;2022-07-18T04:13:59;3.07;;;2.00;;
20593;SDS011;10455;48.732;10.266;2022-07-18T04:19:01;3.07;;;2.00;;
20593;SDS011;10455;48.732;10.266;2022-07-18T04:24:05;3.77;;;1.90;;
20593;SDS011;10455;48.732;10.266;2022-07-18T04:29:07;2.40;;;2.00;;
20593;SDS011;10455;48.732;10.266;2022-07-18T04:34:09;3.33;;;1.83;;
20593;SDS011;10455;48.732;10.266;2022-07-18T04:39:13;2.20;;;1.83;;
20593;SDS011;10455;48.732;10.266;2022-07-18T04:44:16;2.77;;;2.07;;
20593;SDS011;10455;48.732;10.266;2022-07-18T04:49:18;2.35;;;1.52;;
20593;SDS011;10455;48.732;10.266;2022-07-18T04:54:22;2.03;;;1.60;;
20593;SDS011;10455;48.732;10.266;2022-07-18T04:59:24;2.55;;;1.63;;
20593;SDS011;10455;48.732;10.266;2022-07-18T05:04:26;2.50;;;1.45;;
20593;SDS011;10455;48.732;10.266;2022-07-18T05:09:30;2.75;;;1.60;;
20593;SDS011;10455;48.732;10.266;2022-07-18T05:14:32;4.25;;;1.95;;
20593;SDS011;10455;48.732;10.266;2022-07-18T05:19:34;2.58;;;1.83;;
20593;SDS011;10455;48.732;10.266;2022-07-18T05:24:38;5.63;;;1.90;;
20593;SDS011;10455;48.732;10.266;2022-07-18T05:29:40;1.60;;;1.50;;
20593;SDS011;10455;48.732;10.266;2022-07-18T05:34:42;2.83;;;1.60;;
20593;SDS011;10455;48.732;10.266;2022-07-18T05:39:47;3.63;;;1.38;;
20593;SDS011;10455;48.732;10.266;2022-07-18T05:44:50;1.63;;;1.30;;
20593;SDS011;10455;48.732;10.266;2022-07-18T05:49:52;2.88;;;1.50;;
20593;SDS011;10455;48.732;10.266;2022-07-18T05:54:56;2.58;;;1.40;;
20593;SDS011;10455;48.732;10.266;2022-07-18T05:59:58;1.95;;;1.42;;
20593;SDS011;10455;48.732;10.266;2022-07-18T06:05:00;2.20;;;1.70;;
20593;SDS011;10455;48.732;10.266;2022-07-18T06:10:04;1.55;;;1.33;;
20593;SDS011;10455;48.732;10.266;2022-07-18T06:15:07;3.60;;;1.55;;
20593;SDS011;10455;48.732;10.266;2022-07-18T06:20:10;2.97;;;1.60;;
20593;SDS011;10455;48.732;10.266;2022-07-18T06:25:14;1.90;;;1.50;;
20593;SDS011;10455;48.732;10.266;2022-07-18T06:30:16;2.10;;;1.67;;
20593;SDS011;10455;48.732;10.266;2022-07-18T06:35:19;2.53;;;1.45;;
20593;SDS011;10455;48.732;10.266;2022-07-18T06:40:22;3.58;;;1.70;;
20593;SDS011;10455;48.732;10.266;2022-07-18T06:45:25;5.07;;;1.77;;
20593;SDS011;10455;48.732;10.266;2022-07-18T06:50:27;2.17;;;1.60;;
20593;SDS011;10455;48.732;10.266;2022-07-18T06:55:31;2.83;;;1.70;;
20593;SDS011;10455;48.732;10.266;2022-07-18T07:00:33;2.63;;;1.40;;
20593;SDS011;10455;48.732;10.266;2022-07-18T07:05:35;4.53;;;1.55;;
20593;SDS011;10455;48.732;10.266;2022-07-18T07:10:39;8.07;;;2.25;;
20593;SDS011;10455;48.732;10.266;2022-07-18T07:15:42;2.75;;;1.58;;
20593;SDS011;10455;48.732;10.266;2022-07-18T07:20:44;6.18;;;1.80;;
20593;SDS011;10455;48.732;10.266;2022-07-18T07:25:48;2.15;;;1.75;;
20593;SDS011;10455;48.732;10.266;2022-07-18T07:30:51;5.75;;;1.80;;
20593;SDS011;10455;48.732;10.266;2022-07-18T07:35:53;2.25;;;2.00;;
20593;SDS011;10455;48.732;10.266;2022-07-18T07:40:57;3.03;;;1.85;;
20593;SDS011;10455;48.732;10.266;2022-07-18T07:46:01;4.65;;;1.88;;
20593;SDS011;10455;48.732;10.266;2022-07-18T07:51:03;2.33;;;1.80;;
20593;SDS011;10455;48.732;10.266;2022-07-18T07:56:07;2.35;;;1.90;;
20593;SDS011;10455;48.732;10.266;2022-07-18T08:01:10;4.35;;;1.98;;
20593;SDS011;10455;48.732;10.266;2022-07-18T08:06:14;3.58;;;1.67;;
20593;SDS011;10455;48.732;10.266;2022-07-18T08:11:18;2.55;;;1.80;;
20593;SDS011;10455;48.732;10.266;2022-07-18T08:16:20;4.80;;;1.92;;
20593;SDS011;10455;48.732;10.266;2022-07-18T08:21:23;2.10;;;1.90;;
20593;SDS011;10455;48.732;10.266;2022-07-18T08:26:26;2.60;;;1.60;;
20593;SDS011;10455;48.732;10.266;2022-07-18T08:31:28;1.73;;;1.63;;
20593;SDS011;10455;48.732;10.266;2022-07-18T08:36:30;1.63;;;1.38;;
20593;SDS011;10455;48.732;10.266;2022-07-18T08:41:34;2.90;;;1.52;;
20593;SDS011;10455;48.732;10.266;2022-07-18T08:46:38;9.88;;;2.38;;
20593;SDS011;10455;48.732;10.266;2022-07-18T08:51:41;1.65;;;1.55;;
20593;SDS011;10455;48.732;10.266;2022-07-18T08:56:45;1.90;;;1.70;;
20593;SDS011;10455;48.732;10.266;2022-07-18T09:01:48;2.78;;;1.50;;
20593;SDS011;10455;48.732;10.266;2022-07-18T09:06:50;2.40;;;1.60;;
20593;SDS011;10455;48.732;10.266;2022-07-18T09:11:56;1.92;;;1.48;;
20593;SDS011;10455;48.732;10.266;2022-07-18T09:17:04;1.85;;;1.70;;
20593;SDS011;10455;48.732;10.266;2022-07-18T09:22:12;1.80;;;1.70;;
20593;SDS011;10455;48.732;10.266;2022-07-18T09:27:24;1.70;;;1.60;;
20593;SDS011;10455;48.732;10.266;2022-07-18T09:32:28;1.95;;;1.58;;
20593;SDS011;10455;48.732;10.266;2022-07-18T09:37:30;3.08;;;1.80;;
20593;SDS011;10455;48.732;10.266;2022-07-18T09:42:34;3.58;;;1.95;;
20593;SDS011;10455;48.732;10.266;2022-07-18T09:47:48;2.08;;;1.77;;
20593;SDS011;10455;48.732;10.266;2022-07-18T09:53:03;2.83;;;1.70;;
20593;SDS011;10455;48.732;10.266;2022-07-18T09:58:12;3.75;;;1.50;;
20593;SDS011;10455;48.732;10.266;2022-07-18T10:03:18;2.70;;;1.80;;
20593;SDS011;10455;48.732;10.266;2022-07-18T10:08:22;2.28;;;1.80;;
20593;SDS011;10455;48.732;10.266;2022-07-18T10:13:27;3.22;;;1.63;;
20593;SDS011;10455;48.732;10.266;2022-07-18T10:18:31;4.50;;;1.98;;
20593;SDS011;10455;48.732;10.266;2022-07-18T10:23:34;1.77;;;1.50;;
20593;SDS011;10455;48.732;10.266;2022-07-18T10:34:15;2.95;;;1.70;;
20593;SDS011;10455;48.732;10.266;2022-07-18T10:39:17;1.90;;;1.60;;
20593;SDS011;10455;48.732;10.266;2022-07-18T10:44:34;2.10;;;1.60;;
20593;SDS011;10455;48.732;10.266;2022-07-18T11:00:31;2.17;;;1.70;;
20593;SDS011;10455;48.732;10.266;2022-07-18T11:05:41;1.60;;;1.50;;
20593;SDS011;10455;48.732;10.266;2022-07-18T11:16:22;1.85;;;1.60;;
20593;SDS011;10455;48.732;10.266;2022-07-18T11:21:26;3.88;;;2.63;;
20593;SDS011;10455;48.732;10.266;2022-07-18T11:26:29;1.92;;;1.70;;
20593;SDS011;10455;48.732;10.266;2022-07-18T11:31:42;5.95;;;2.25;;
20593;SDS011;10455;48.732;10.266;2022-07-18T11:36:46;1.95;;;1.60;;
20593;SDS011;10455;48.732;10.266;2022-07-18T11:41:49;6.97;;;3.33;;
20593;SDS011;10455;48.732;10.266;2022-07-18T11:47:01;3.00;;;1.73;;
20593;SDS011;10455;48.732;10.266;2022-07-18T11:52:05;2.10;;;1.65;;
20593;SDS011;10455;48.732;10.266;2022-07-18T11:57:08;1.65;;;1.55;;
20593;SDS011;10455;48.732;10.266;2022-07-18T12:02:11;2.50;;;1.58;;
20593;SDS011;10455;48.732;10.266;2022-07-18T12:07:14;1.88;;;1.73;;
20593;SDS011;10455;48.732;10.266;2022-07-18T12:12:22;3.60;;;1.70;;
20593;SDS011;10455;48.732;10.266;2022-07-18T12:17:25;5.97;;;1.83;;
20593;SDS011;10455;48.732;10.266;2022-07-18T12:22:28;2.65;;;1.60;;
20593;SDS011;10455;48.732;10.266;2022-07-18T12:27:33;1.80;;;1.70;;
20593;SDS011;10455;48.732;10.266;2022-07-18T12:32:39;3.42;;;1.80;;
20593;SDS011;10455;48.732;10.266;2022-07-18T12:37:50;2.53;;;1.65;;
20593;SDS011;10455;48.732;10.266;2022-07-18T12:43:03;2.05;;;1.80;;
20593;SDS011;10455;48.732;10.266;2022-07-18T12:48:09;2.13;;;1.70;;
20593;SDS011;10455;48.732;10.266;2022-07-18T12:53:13;3.20;;;1.73;;
20593;SDS011;10455;48.732;10.266;2022-07-18T12:58:15;2.67;;;1.80;;
20593;SDS011;10455;48.732;10.266;2022-07-18T13:03:19;3.53;;;2.10;;
20593;SDS011;10455;48.732;10.266;2022-07-18T13:08:21;4.35;;;2.03;;
20593;SDS011;10455;48.732;10.266;2022-07-18T13:13:27;4.00;;;1.95;;
20593;SDS011;10455;48.732;10.266;2022-07-18T13:18:31;5.60;;;2.25;;
20593;SDS011;10455;48.732;10.266;2022-07-18T13:23:33;6.75;;;2.17;;
20593;SDS011;10455;48.732;10.266;2022-07-18T13:28:35;2.17;;;1.90;;
20593;SDS011;10455;48.732;10.266;2022-07-18T13:33:39;2.65;;;1.90;;
20593;SDS011;10455;48.732;10.266;2022-07-18T13:38:41;1.90;;;1.80;;
20593;SDS011;10455;48.732;10.266;2022-07-18T13:43:44;2.95;;;1.80;;
20593;SDS011;10455;48.732;10.266;2022-07-18T13:48:47;2.95;;;1.73;;
20593;SDS011;10455;48.732;10.266;2022-07-18T13:53:50;2.78;;;2.00;;
20593;SDS011;10455;48.732;10.266;2022-07-18T13:58:52;4.22;;;1.73;;
20593;SDS011;10455;48.732;10.266;2022-07-18T14:03:55;7.20;;;2.10;;
20593;SDS011;10455;48.732;10.266;2022-07-18T14:08:57;3.40;;;1.60;;
20593;SDS011;10455;48.732;10.266;2022-07-18T14:14:00;2.72;;;1.50;;
20593;SDS011;10455;48.732;10.266;2022-07-18T14:19:03;3.28;;;1.80;;
20593;SDS011;10455;48.732;10.266;2022-07-18T14:24:06;2.58;;;1.80;;
20593;SDS011;10455;48.732;10.266;2022-07-18T14:29:08;2.78;;;1.90;;
20593;SDS011;10455;48.732;10.266;2022-07-18T14:34:12;2.17;;;1.83;;
20593;SDS011;10455;48.732;10.266;2022-07-18T14:39:14;2.15;;;1.85;;
20593;SDS011;10455;48.732;10.266;2022-07-18T14:44:16;1.80;;;1.70;;
20593;SDS011;10455;48.732;10.266;2022-07-18T14:49:19;3.15;;;1.85;;
20593;SDS011;10455;48.732;10.266;2022-07-18T14:54:22;2.35;;;2.00;;
20593;SDS011;10455;48.732;10.266;2022-07-18T14:59:24;3.10;;;1.98;;
20593;SDS011;10455;48.732;10.266;2022-07-18T15:04:28;2.35;;;1.90;;
20593;SDS011;10455;48.732;10.266;2022-07-18T15:09:30;3.85;;;1.70;;
20593;SDS011;10455;48.732;10.266;2022-07-18T15:14:32;2.85;;;1.92;;
20593;SDS011;10455;48.732;10.266;2022-07-18T15:19:36;5.70;;;2.00;;
20593;SDS011;10455;48.732;10.266;2022-07-18T15:24:38;2.30;;;1.73;;
20593;SDS011;10455;48.732;10.266;2022-07-18T15:29:40;3.45;;;1.90;;
20593;SDS011;10455;48.732;10.266;2022-07-18T15:34:44;1.92;;;1.60;;
20593;SDS011;10455;48.732;10.266;2022-07-18T15:39:46;2.58;;;1.75;;
20593;SDS011;10455;48.732;10.266;2022-07-18T15:44:48;3.45;;;1.60;;
20593;SDS011;10455;48.732;10.266;2022-07-18T15:49:51;1.92;;;1.73;;
20593;SDS011;10455;48.732;10.266;2022-07-18T15:54:54;2.15;;;1.98;;
20593;SDS011;10455;48.732;10.266;2022-07-18T15:59:56;2.60;;;2.00;;
20593;SDS011;10455;48.732;10.266;2022-07-18T16:04:59;2.08;;;1.70;;
20593;SDS011;10455;48.732;10.266;2022-07-18T16:10:01;2.40;;;2.20;;
20593;SDS011;10455;48.732;10.266;2022-07-18T16:15:04;3.83;;;2.35;;
20593;SDS011;10455;48.732;10.266;2022-07-18T16:20:09;1.73;;;1.63;;
20593;SDS011;10455;48.732;10.266;2022-07-18T16:25:14;3.42;;;1.77;;
20593;SDS011;10455;48.732;10.266;2022-07-18T16:30:16;3.13;;;1.88;;
20593;SDS011;10455;48.732;10.266;2022-07-18T16:35:20;1.90;;;1.80;;
20593;SDS011;10455;48.732;10.266;2022-07-18T16:40:22;1.70;;;1.60;;
20593;SDS011;10455;48.732;10.266;2022-07-18T16:45:25;3.70;;;1.92;;
20593;SDS011;10455;48.732;10.266;2022-07-18T16:50:29;2.60;;;2.00;;
20593;SDS011;10455;48.732;10.266;2022-07-18T16:55:31;2.65;;;1.95;;
20593;SDS011;10455;48.732;10.266;2022-07-18T17:00:37;2.60;;;2.33;;
20593;SDS011;10455;48.732;10.266;2022-07-18T17:05:41;6.60;;;2.67;;
20593;SDS011;10455;48.732;10.266;2022-07-18T17:10:44;2.95;;;2.00;;
20593;SDS011;10455;48.732;10.266;2022-07-18T17:15:47;2.28;;;1.85;;
20593;SDS011;10455;48.732;10.266;2022-07-18T17:20:51;3.15;;;1.90;;
20593;SDS011;10455;48.732;10.266;2022-07-18T17:25:53;2.35;;;1.95;;
20593;SDS011;10455;48.732;10.266;2022-07-18T17:30:55;2.65;;;2.03;;
20593;SDS011;10455;48.732;10.266;2022-07-18T17:36:00;2.40;;;1.80;;
20593;SDS011;10455;48.732;10.266;2022-07-18T17:41:03;2.50;;;1.95;;
20593;SDS011;10455;48.732;10.266;2022-07-18T17:46:06;2.20;;;2.00;;
20593;SDS011;10455;48.732;10.266;2022-07-18T17:51:11;2.45;;;1.98;;
20593;SDS011;10455;48.732;10.266;2022-07-18T17:56:13;3.33;;;1.95;;
20593;SDS011;10455;48.732;10.266;2022-07-18T18:01:17;6.88;;;2.35;;
20593;SDS011;10455;48.732;10.266;2022-07-18T18:06:20;3.45;;;1.85;;
20593;SDS011;10455;48.732;10.266;2022-07-18T18:11:23;4.00;;;2.33;;
20593;SDS011;10455;48.732;10.266;2022-07-18T18:16:25;2.38;;;2.08;;
20593;SDS011;10455;48.732;10.266;2022-07-18T18:21:28;2.80;;;1.98;;
20593;SDS011;10455;48.732;10.266;2022-07-18T18:26:30;4.18;;;2.10;;
20593;SDS011;10455;48.732;10.266;2022-07-18T18:31:33;2.78;;;2.10;;
20593;SDS011;10455;48.732;10.266;2022-07-18T18:36:36;3.35;;;2.38;;
20593;SDS011;10455;48.732;10.266;2022-07-18T18:41:58;3.92;;;2.03;;
20593;SDS011;10455;48.732;10.266;2022-07-18T18:47:01;4.97;;;2.20;;
20593;SDS011;10455;48.732;10.266;2022-07-18T18:52:05;2.97;;;2.10;;
20593;SDS011;10455;48.732;10.266;2022-07-18T18:57:07;3.13;;;2.20;;
20593;SDS011;10455;48.732;10.266;2022-07-18T19:02:10;2.23;;;1.90;;
20593;SDS011;10455;48.732;10.266;2022-07-18T19:07:13;3.30;;;2.40;;
20593;SDS011;10455;48.732;10.266;2022-07-18T19:12:16;3.80;;;2.30;;
20593;SDS011;10455;48.732;10.266;2022-07-18T19:17:18;3.95;;;2.17;;
20593;SDS011;10455;48.732;10.266;2022-07-18T19:22:22;4.68;;;2.10;;
20593;SDS011;10455;48.732;10.266;2022-07-18T19:27:24;5.50;;;2.92;;
20593;SDS011;10455;48.732;10.266;2022-07-18T19:32:27;6.05;;;2.55;;
20593;SDS011;10455;48.732;10.266;2022-07-18T19:37:30;8.52;;;2.60;;
20593;SDS011;10455;48.732;10.266;2022-07-18T19:42:33;4.28;;;2.70;;
20593;SDS011;10455;48.732;10.266;2022-07-18T19:47:49;2.92;;;2.50;;
20593;SDS011;10455;48.732;10.266;2022-07-18T19:52:54;3.72;;;2.55;;
20593;SDS011;10455;48.732;10.266;2022-07-18T19:57:56;4.38;;;2.45;;
20593;SDS011;10455;48.732;10.266;2022-07-18T20:03:00;3.08;;;2.40;;
20593;SDS011;10455;48.732;10.266;2022-07-18T20:08:04;4.43;;;2.20;;
20593;SDS011;10455;48.732;10.266;2022-07-18T20:13:08;2.72;;;2.30;;
20593;SDS011;10455;48.732;10.266;2022-07-18T20:18:10;4.22;;;2.33;;
20593;SDS011;10455;48.732;10.266;2022-07-18T20:23:14;3.20;;;2.22;;
20593;SDS011;10455;48.732;10.266;2022-07-18T20:28:16;2.75;;;2.13;;
20593;SDS011;10455;48.732;10.266;2022-07-18T20:33:18;4.30;;;2.20;;
20593;SDS011;10455;48.732;10.266;2022-07-18T20:38:22;3.33;;;2.25;;
20593;SDS011;10455;48.732;10.266;2022-07-18T20:43:24;3.17;;;2.50;;
20593;SDS011;10455;48.732;10.266;2022-07-18T20:48:26;3.28;;;2.53;;
20593;SDS011;10455;48.732;10.266;2022-07-18T20:53:30;3.58;;;2.70;;
20593;SDS011;10455;48.732;10.266;2022-07-18T20:58:32;2.85;;;2.30;;
20593;SDS011;10455;48.732;10.266;2022-07-18T21:03:35;6.63;;;2.42;;
20593;SDS011;10455;48.732;10.266;2022-07-18T21:08:39;3.65;;;2.50;;
20593;SDS011;10455;48.732;10.266;2022-07-18T21:13:41;4.45;;;2.33;;
20593;SDS011;10455;48.732;10.266;2022-07-18T21:18:44;3.80;;;2.38;;
20593;SDS011;10455;48.732;10.266;2022-07-18T21:23:47;3.72;;;2.40;;
20593;SDS011;10455;48.732;10.266;2022-07-18T21:28:49;3.43;;;2.60;;
20593;SDS011;10455;48.732;10.266;2022-07-18T21:33:51;3.27;;;2.40;;
20593;SDS011;10455;48.732;10.266;2022-07-18T21:38:55;3.55;;;2.70;;
20593;SDS011;10455;48.732;10.266;2022-07-18T21:43:57;3.17;;;2.80;;
20593;SDS011;10455;48.732;10.266;2022-07-18T21:48:59;4.28;;;2.53;;
20593;SDS011;10455;48.732;10.266;2022-07-18T21:54:03;4.60;;;2.40;;
20593;SDS011;10455;48.732;10.266;2022-07-18T21:59:05;5.40;;;2.50;;
20593;SDS011;10455;48.732;10.266;2022-07-18T22:04:07;4.83;;;2.63;;
20593;SDS011;10455;48.732;10.266;2022-07-18T22:09:11;2.77;;;2.30;;
20593;SDS011;10455;48.732;10.266;2022-07-18T22:14:14;2.67;;;2.40;;
20593;SDS011;10455;48.732;10.266;2022-07-18T22:19:16;2.93;;;2.63;;
20593;SDS011;10455;48.732;10.266;2022-07-18T22:24:20;3.87;;;2.57;;
20593;SDS011;10455;48.732;10.266;2022-07-18T22:29:22;3.07;;;2.77;;
20593;SDS011;10455;48.732;10.266;2022-07-18T22:34:24;3.50;;;2.70;;
20593;SDS011;10455;48.732;10.266;2022-07-18T22:39:28;2.50;;;2.30;;
20593;SDS011;10455;48.732;10.266;2022-07-18T22:44:30;3.00;;;2.70;;
20593;SDS011;10455;48.732;10.266;2022-07-18T22:49:32;3.00;;;2.70;;
20593;SDS011;10455;48.732;10.266;2022-07-18T22:54:36;3.10;;;2.80;;
20593;SDS011;10455;48.732;10.266;2022-07-18T22:59:39;3.23;;;2.70;;
20593;SDS011;10455;48.732;10.266;2022-07-18T23:04:41;3.00;;;2.70;;
20593;SDS011;10455;48.732;10.266;2022-07-18T23:09:45;2.80;;;2.60;;
20593;SDS011;10455;48.732;10.266;2022-07-18T23:14:47;4.73;;;2.83;;
20593;SDS011;10455;48.732;10.266;2022-07-18T23:19:49;3.20;;;2.90;;
20593;SDS011;10455;48.732;10.266;2022-07-18T23:24:54;3.70;;;3.20;;
20593;SDS011;10455;48.732;10.266;2022-07-18T23:29:56;4.83;;;3.23;;
20593;SDS011;10455;48.732;10.266;2022-07-18T23:34:59;3.30;;;2.90;;
20593;SDS011;10455;48.732;10.266;2022-07-18T23:40:04;3.17;;;2.87;;
20593;SDS011;10455;48.732;10.266;2022-07-18T23:45:10;3.27;;;2.97;;
20593;SDS011;10455;48.732;10.266;2022-07-18T23:50:14;5.03;;;3.20;;
20593;SDS011;10455;48.732;10.266;2022-07-18T23:55:18;3.30;;;3.00;;
